createdAt,value
2022-11-27T00:01:30.917Z,195.43
2022-11-27T00:03:58.713Z,191.57
2022-11-27T00:06:27.803Z,193.77
2022-11-27T00:08:57.404Z,192.63
2022-11-27T00:11:26.552Z,190.17
2022-11-27T00:13:55.459Z,195.37
2022-11-27T00:16:23.884Z,192.00
2022-11-27T00:18:53.172Z,198.83
2022-11-27T00:21:24.048Z,196.57
2022-11-27T00:23:52.425Z,188.53
2022-11-27T00:26:20.294Z,189.80
2022-11-27T00:28:48.200Z,202.40
2022-11-27T00:31:18.137Z,196.57
2022-11-27T00:33:46.320Z,191.17
2022-11-27T00:36:16.200Z,192.60
2022-11-27T00:38:43.970Z,185.33
2022-11-27T00:41:13.389Z,187.23
2022-11-27T00:43:44.616Z,196.30
2022-11-27T00:46:13.407Z,195.10
2022-11-27T00:48:41.338Z,187.80
2022-11-27T00:51:10.707Z,198.77
2022-11-27T00:53:39.726Z,187.70
2022-11-27T00:56:07.970Z,185.83
2022-11-27T00:58:35.926Z,197.97
2022-11-27T01:01:05.871Z,194.33
2022-11-27T01:03:33.684Z,190.00
2022-11-27T01:06:05.173Z,190.13
2022-11-27T01:08:33.248Z,196.23
2022-11-27T01:11:02.547Z,195.73
2022-11-27T01:13:32.245Z,200.07
2022-11-27T01:16:00.970Z,208.30
2022-11-27T01:18:29.155Z,202.67
2022-11-27T01:20:57.063Z,195.63
2022-11-27T01:23:25.253Z,199.87
2022-11-27T01:25:54.029Z,204.43
2022-11-27T01:28:24.039Z,200.53
2022-11-27T01:30:52.278Z,203.80
2022-11-27T01:33:20.369Z,204.50
2022-11-27T01:35:55.249Z,207.27
2022-11-27T01:38:23.360Z,207.47
2022-11-27T01:40:51.384Z,208.40
2022-11-27T01:43:19.039Z,209.47
2022-11-27T01:45:48.048Z,210.17
2022-11-27T01:48:15.763Z,208.37
2022-11-27T01:50:43.430Z,206.67
2022-11-27T01:53:14.285Z,207.60
2022-11-27T01:55:44.188Z,203.67
2022-11-27T01:58:14.950Z,205.40
2022-11-27T02:00:42.841Z,206.57
2022-11-27T02:03:12.320Z,208.60
2022-11-27T02:05:40.096Z,210.33
2022-11-27T02:08:10.366Z,214.20
2022-11-27T02:10:44.501Z,205.37
2022-11-27T02:13:15.127Z,207.73
2022-11-27T02:15:45.542Z,203.57
2022-11-27T02:18:20.541Z,210.17
2022-11-27T02:20:52.469Z,211.20
2022-11-27T02:23:38.032Z,206.00
2022-11-27T02:26:32.368Z,203.53
2022-11-27T02:29:03.567Z,207.97
2022-11-27T02:31:37.482Z,207.33
2022-11-27T02:34:24.509Z,206.70
2022-11-27T02:37:01.584Z,204.27
2022-11-27T02:39:33.592Z,202.07
2022-11-27T02:42:06.957Z,206.73
2022-11-27T02:44:36.985Z,205.57
2022-11-27T02:47:06.135Z,205.47
2022-11-27T02:49:34.818Z,206.33
2022-11-27T02:52:03.355Z,206.97
2022-11-27T02:54:32.105Z,205.87
2022-11-27T02:57:02.005Z,202.13
2022-11-27T02:59:31.347Z,201.60
2022-11-27T03:02:03.047Z,204.00
2022-11-27T03:04:34.598Z,204.77
2022-11-27T03:07:05.208Z,206.07
2022-11-27T03:09:36.034Z,206.27
2022-11-27T03:12:04.584Z,202.20
2022-11-27T03:14:32.312Z,205.87
2022-11-27T03:17:04.388Z,202.13
2022-11-27T03:19:38.541Z,204.60
2022-11-27T03:22:06.640Z,210.77
2022-11-27T03:24:36.362Z,205.17
2022-11-27T03:27:04.872Z,209.53
2022-11-27T03:29:36.111Z,204.43
2022-11-27T03:32:05.744Z,211.23
2022-11-27T03:34:34.019Z,204.27
2022-11-27T03:37:01.936Z,204.50
2022-11-27T03:39:30.527Z,203.93
2022-11-27T03:42:06.807Z,201.63
2022-11-27T03:44:41.713Z,201.77
2022-11-27T03:47:15.822Z,210.87
2022-11-27T03:49:55.929Z,200.50
2022-11-27T03:52:28.141Z,201.13
2022-11-27T03:55:01.636Z,201.27
2022-11-27T03:57:33.225Z,203.90
2022-11-27T04:00:02.598Z,205.53
2022-11-27T04:02:39.699Z,205.33
2022-11-27T04:05:08.176Z,212.23
2022-11-27T04:07:36.010Z,203.90
2022-11-27T04:10:03.691Z,212.87
2022-11-27T04:12:31.336Z,204.97
2022-11-27T04:14:59.052Z,204.77
2022-11-27T04:17:27.006Z,203.63
2022-11-27T04:19:56.030Z,206.77
2022-11-27T04:22:23.717Z,202.97
2022-11-27T04:24:51.622Z,204.40
2022-11-27T04:27:19.420Z,203.77
2022-11-27T04:29:47.146Z,204.83
2022-11-27T04:32:14.868Z,206.70
2022-11-27T04:34:42.684Z,201.17
2022-11-27T04:37:11.797Z,207.07
2022-11-27T04:39:39.435Z,202.37
2022-11-27T04:42:07.852Z,202.87
2022-11-27T04:44:35.576Z,202.57
2022-11-27T04:47:03.589Z,209.17
2022-11-27T04:49:31.299Z,206.87
2022-11-27T04:51:58.977Z,203.47
2022-11-27T04:54:28.046Z,204.67
2022-11-27T04:56:55.740Z,203.83
2022-11-27T04:59:23.452Z,201.77
2022-11-27T05:01:51.331Z,201.37
2022-11-27T05:04:19.088Z,193.30
2022-11-27T05:06:46.808Z,195.77
2022-11-27T05:09:14.530Z,205.83
2022-11-27T05:11:43.576Z,197.63
2022-11-27T05:14:18.067Z,188.83
2022-11-27T05:16:47.522Z,191.27
2022-11-27T05:19:15.875Z,197.40
2022-11-27T05:21:44.397Z,194.23
2022-11-27T05:24:12.307Z,198.23
2022-11-27T05:26:40.816Z,204.03
2022-11-27T05:29:10.423Z,192.27
2022-11-27T05:31:38.697Z,190.50
2022-11-27T05:34:06.926Z,197.17
2022-11-27T05:36:34.809Z,200.67
2022-11-27T05:39:03.699Z,190.13
2022-11-27T05:41:31.583Z,191.10
2022-11-27T05:43:59.342Z,190.97
2022-11-27T05:46:29.036Z,189.63
2022-11-27T05:48:56.770Z,198.07
2022-11-27T05:51:24.787Z,190.73
2022-11-27T05:53:52.438Z,200.03
2022-11-27T05:56:20.217Z,196.17
2022-11-27T05:58:49.164Z,191.47
2022-11-27T06:01:18.390Z,199.17
2022-11-27T06:03:47.447Z,198.17
2022-11-27T06:06:17.319Z,199.17
2022-11-27T06:08:45.664Z,198.60
2022-11-27T06:11:15.421Z,191.93
2022-11-27T06:13:43.202Z,196.23
2022-11-27T06:16:14.213Z,198.40
2022-11-27T06:18:41.902Z,195.80
2022-11-27T06:21:12.902Z,198.47
2022-11-27T06:23:41.072Z,198.80
2022-11-27T06:26:14.228Z,195.17
2022-11-27T06:28:42.073Z,195.87
2022-11-27T06:31:17.551Z,199.77
2022-11-27T06:33:45.905Z,201.77
2022-11-27T06:36:15.104Z,197.40
2022-11-27T06:38:42.848Z,196.63
2022-11-27T06:41:12.112Z,195.67
2022-11-27T06:43:39.894Z,201.27
2022-11-27T06:46:09.153Z,201.57
2022-11-27T06:48:36.856Z,195.17
2022-11-27T06:51:05.982Z,193.27
2022-11-27T06:53:36.524Z,195.07
2022-11-27T06:56:04.935Z,199.87
2022-11-27T06:58:32.907Z,198.27
2022-11-27T07:01:00.993Z,197.90
2022-11-27T07:03:28.843Z,194.70
2022-11-27T07:05:56.499Z,203.30
2022-11-27T07:08:24.218Z,195.17
2022-11-27T07:10:53.276Z,196.23
2022-11-27T07:13:21.025Z,196.57
2022-11-27T07:15:48.793Z,196.87
2022-11-27T07:18:16.485Z,196.47
2022-11-27T07:20:44.158Z,199.93
2022-11-27T07:23:11.800Z,198.47
2022-11-27T07:25:39.436Z,195.23
2022-11-27T07:28:08.504Z,200.87
2022-11-27T07:30:36.221Z,209.27
2022-11-27T07:33:04.060Z,197.73
2022-11-27T07:35:31.692Z,198.17
2022-11-27T07:37:59.387Z,199.67
2022-11-27T07:40:27.069Z,205.13
2022-11-27T07:42:54.800Z,197.47
2022-11-27T07:45:23.867Z,194.63
2022-11-27T07:47:51.653Z,193.37
2022-11-27T07:50:19.423Z,202.13
2022-11-27T07:52:47.113Z,191.73
2022-11-27T07:55:15.076Z,201.20
2022-11-27T07:57:43.456Z,202.43
2022-11-27T08:00:12.060Z,203.63
2022-11-27T08:02:41.146Z,197.47
2022-11-27T08:05:12.682Z,197.40
2022-11-27T08:07:40.804Z,201.43
2022-11-27T08:10:09.482Z,201.70
2022-11-27T08:12:37.171Z,196.47
2022-11-27T08:15:05.744Z,200.47
2022-11-27T08:17:33.520Z,197.67
2022-11-27T08:20:04.300Z,201.30
2022-11-27T08:22:31.972Z,199.60
2022-11-27T08:24:59.682Z,200.60
2022-11-27T08:27:27.411Z,199.60
2022-11-27T08:29:55.052Z,204.03
2022-11-27T08:32:22.732Z,197.43
2022-11-27T08:34:50.401Z,197.67
2022-11-27T08:37:19.468Z,198.13
2022-11-27T08:39:47.192Z,197.73
2022-11-27T08:42:14.958Z,199.00
2022-11-27T08:44:43.054Z,195.23
2022-11-27T08:47:11.072Z,200.17
2022-11-27T08:49:42.500Z,196.13
2022-11-27T08:52:12.793Z,195.80
2022-11-27T08:54:42.144Z,194.83
2022-11-27T08:57:10.055Z,195.53
2022-11-27T08:59:37.728Z,195.87
2022-11-27T09:02:05.482Z,196.03
2022-11-27T09:04:33.260Z,196.67
2022-11-27T09:07:01.312Z,199.87
2022-11-27T09:09:29.274Z,197.37
2022-11-27T09:11:58.397Z,198.17
2022-11-27T09:14:26.116Z,194.37
2022-11-27T09:16:54.467Z,198.87
2022-11-27T09:19:22.584Z,194.43
2022-11-27T09:21:50.562Z,195.90
2022-11-27T09:24:18.814Z,193.97
2022-11-27T09:26:46.484Z,192.40
2022-11-27T09:29:15.565Z,188.20
2022-11-27T09:31:43.367Z,190.77
2022-11-27T09:34:11.145Z,179.33
2022-11-27T09:36:38.797Z,196.70
2022-11-27T09:39:06.481Z,196.60
2022-11-27T09:41:47.006Z,195.10
2022-11-27T09:44:26.415Z,195.10
2022-11-27T09:46:56.487Z,187.03
2022-11-27T09:49:27.442Z,181.93
2022-11-27T09:52:00.504Z,162.98
2022-11-27T09:54:31.736Z,169.52
2022-11-27T09:56:59.935Z,170.55
2022-11-27T09:59:33.173Z,170.02
2022-11-27T10:02:00.939Z,173.77
2022-11-27T10:04:36.182Z,170.32
2022-11-27T10:07:25.445Z,170.30
2022-11-27T10:10:06.222Z,169.50
2022-11-27T10:12:41.170Z,170.93
2022-11-27T10:15:13.515Z,175.60
2022-11-27T10:17:44.522Z,174.25
2022-11-27T10:20:19.677Z,174.30
2022-11-27T10:22:53.929Z,167.43
2022-11-27T10:25:26.564Z,171.02
2022-11-27T10:28:04.228Z,166.73
2022-11-27T10:30:34.470Z,173.90
2022-11-27T10:33:03.431Z,173.47
2022-11-27T10:35:32.063Z,165.97
2022-11-27T10:38:06.477Z,173.38
2022-11-27T10:40:39.566Z,176.07
2022-11-27T10:43:12.035Z,172.48
2022-11-27T10:45:45.192Z,167.40
2022-11-27T10:48:14.053Z,166.23
2022-11-27T10:50:42.579Z,174.35
2022-11-27T10:53:12.856Z,164.20
2022-11-27T10:55:55.572Z,171.25
2022-11-27T10:58:28.144Z,169.13
2022-11-27T11:01:05.336Z,161.43
2022-11-27T11:03:33.063Z,168.18
2022-11-27T11:06:19.986Z,173.93
2022-11-27T11:08:49.144Z,169.68
2022-11-27T11:11:26.454Z,163.77
2022-11-27T11:13:54.976Z,159.90
2022-11-27T11:16:29.423Z,172.88
2022-11-27T11:19:01.536Z,170.47
2022-11-27T11:21:30.676Z,161.83
2022-11-27T11:24:00.840Z,166.40
2022-11-27T11:26:30.261Z,173.00
2022-11-27T11:28:59.999Z,166.57
2022-11-27T11:31:33.381Z,165.37
2022-11-27T11:47:17.112Z,214.93
2022-11-27T11:49:44.829Z,165.47
2022-11-27T11:52:22.871Z,175.73
2022-11-27T11:54:57.146Z,160.70
2022-11-27T11:57:47.287Z,168.87
2022-11-27T12:00:17.511Z,171.10
2022-11-27T12:03:04.436Z,169.93
2022-11-27T12:05:38.805Z,166.70
2022-11-27T12:08:16.938Z,175.73
2022-11-27T12:10:53.453Z,169.17
2022-11-27T12:13:33.951Z,161.23
2022-11-27T12:16:07.479Z,164.70
2022-11-27T12:18:46.975Z,158.70
2022-11-27T12:21:16.100Z,174.80
2022-11-27T12:23:53.869Z,156.67
2022-11-27T12:26:30.079Z,155.80
2022-11-27T12:29:15.203Z,159.70
2022-11-27T12:31:56.238Z,159.57
2022-11-27T12:34:33.217Z,160.43
2022-11-27T12:37:14.097Z,161.30
2022-11-27T12:39:52.295Z,165.23
2022-11-27T12:42:22.257Z,169.13
2022-11-27T12:44:55.679Z,163.03
2022-11-27T12:47:27.179Z,161.67
2022-11-27T12:49:58.700Z,161.53
2022-11-27T12:52:30.182Z,163.23
2022-11-27T12:55:01.973Z,162.37
2022-11-27T12:57:35.476Z,164.80
2022-11-27T13:00:06.574Z,172.23
2022-11-27T13:02:36.862Z,166.57
2022-11-27T13:05:08.096Z,162.27
2022-11-27T13:07:41.953Z,161.33
2022-11-27T13:10:25.316Z,170.13
2022-11-27T13:13:00.123Z,163.20
2022-11-27T13:15:32.392Z,170.73
2022-11-27T13:18:06.131Z,167.43
2022-11-27T13:20:38.189Z,168.20
2022-11-27T13:23:05.840Z,165.93
2022-11-27T13:25:36.068Z,169.77
2022-11-27T13:28:06.018Z,173.57
2022-11-27T13:30:35.879Z,178.57
2022-11-27T13:33:06.225Z,175.30
2022-11-27T13:35:41.887Z,172.93
2022-11-27T13:38:11.842Z,184.17
2022-11-27T13:40:41.404Z,179.03
2022-11-27T13:43:20.658Z,182.20
2022-11-27T13:45:48.721Z,173.53
2022-11-27T13:48:27.293Z,178.97
2022-11-27T13:50:56.808Z,182.27
2022-11-27T13:53:32.085Z,175.73
2022-11-27T13:55:59.922Z,173.97
2022-11-27T13:58:32.648Z,182.60
2022-11-27T14:01:00.904Z,179.00
2022-11-27T14:03:30.067Z,180.37
2022-11-27T14:05:59.107Z,180.37
2022-11-27T14:08:28.285Z,173.17
2022-11-27T14:10:59.215Z,165.03
2022-11-27T14:13:39.599Z,176.07
2022-11-27T14:16:22.432Z,177.03
2022-11-27T14:18:51.867Z,172.30
2022-11-27T14:21:26.541Z,178.77
2022-11-27T14:23:54.778Z,174.00
2022-11-27T14:26:24.174Z,173.50
2022-11-27T14:28:54.096Z,180.77
2022-11-27T14:31:28.875Z,175.80
2022-11-27T14:34:15.172Z,177.73
2022-11-27T14:36:45.326Z,173.87
2022-11-27T14:39:22.370Z,168.77
2022-11-27T14:41:57.468Z,169.57
2022-11-27T14:44:25.267Z,167.40
2022-11-27T14:46:53.702Z,169.70
2022-11-27T14:49:23.334Z,172.23
2022-11-27T14:51:52.871Z,166.70
2022-11-27T14:54:25.444Z,166.20
2022-11-27T14:56:53.303Z,175.93
2022-11-27T14:59:22.168Z,172.07
2022-11-27T15:02:00.863Z,179.97
2022-11-27T15:04:30.093Z,169.27
2022-11-27T15:06:59.786Z,178.60
2022-11-27T15:09:32.419Z,173.17
2022-11-27T15:12:03.309Z,185.73
2022-11-27T15:14:31.492Z,175.53
2022-11-27T15:16:59.907Z,170.20
2022-11-27T15:19:30.016Z,181.30
2022-11-27T15:21:59.519Z,180.20
2022-11-27T15:24:32.576Z,168.37
2022-11-27T15:27:17.820Z,173.37
2022-11-27T15:30:00.289Z,181.03
2022-11-27T15:32:34.508Z,177.17
2022-11-27T15:35:13.106Z,161.90
2022-11-27T15:37:42.224Z,178.00
2022-11-27T15:40:24.938Z,179.90
2022-11-27T15:42:52.592Z,179.77
2022-11-27T15:45:20.306Z,173.40
2022-11-27T15:47:48.109Z,174.03
2022-11-27T15:50:16.367Z,181.33
2022-11-27T15:52:45.453Z,179.33
2022-11-27T15:55:14.820Z,162.93
2022-11-27T15:57:42.683Z,160.97
2022-11-27T16:00:11.337Z,161.40
2022-11-27T16:02:39.164Z,161.73
2022-11-27T16:05:08.755Z,184.93
2022-11-27T16:07:36.552Z,171.17
2022-11-27T16:10:07.061Z,177.17
2022-11-27T16:12:34.785Z,157.90
2022-11-27T16:15:02.539Z,162.73
2022-11-27T16:17:30.252Z,157.77
2022-11-27T16:19:58.094Z,177.50
2022-11-27T16:22:25.808Z,160.17
2022-11-27T16:24:53.484Z,175.23
2022-11-27T16:27:22.471Z,167.70
2022-11-27T16:29:50.168Z,175.10
2022-11-27T16:32:17.839Z,163.93
2022-11-27T16:34:45.529Z,173.17
2022-11-27T16:37:18.232Z,179.73
2022-11-27T16:39:46.292Z,164.30
2022-11-27T16:42:13.939Z,183.80
2022-11-27T16:44:44.361Z,177.10
2022-11-27T16:47:12.199Z,202.20
2022-11-27T16:49:39.916Z,178.20
2022-11-27T16:52:07.583Z,185.37
2022-11-27T16:54:35.239Z,178.17
2022-11-27T16:57:02.938Z,171.50
2022-11-27T16:59:30.716Z,173.40
2022-11-27T17:01:59.830Z,174.87
2022-11-27T17:04:27.944Z,177.17
2022-11-27T17:06:56.225Z,176.93
2022-11-27T17:09:29.184Z,168.10
2022-11-27T17:11:56.956Z,172.77
2022-11-27T17:14:26.820Z,177.97
2022-11-27T17:16:54.534Z,178.60
2022-11-27T17:19:24.229Z,169.10
2022-11-27T17:21:52.030Z,176.07
2022-11-27T17:24:19.788Z,178.87
2022-11-27T17:26:48.463Z,180.97
2022-11-27T17:29:17.572Z,178.87
2022-11-27T17:31:45.387Z,176.37
2022-11-27T17:34:14.670Z,178.40
2022-11-27T17:36:45.065Z,170.33
2022-11-27T17:39:14.214Z,176.93
2022-11-27T17:41:44.431Z,175.57
2022-11-27T17:44:12.487Z,173.73
2022-11-27T17:46:40.579Z,180.87
2022-11-27T17:49:08.812Z,179.60
2022-11-27T17:51:37.478Z,178.20
2022-11-27T17:54:06.636Z,180.77
2022-11-27T17:56:35.012Z,179.60
2022-11-27T17:59:02.959Z,183.03
2022-11-27T18:01:31.272Z,182.13
2022-11-27T18:04:01.254Z,178.20
2022-11-27T18:06:29.261Z,179.67
2022-11-27T18:08:58.162Z,185.57
2022-11-27T18:11:29.359Z,179.27
2022-11-27T18:13:57.313Z,181.90
2022-11-27T18:16:29.004Z,185.10
2022-11-27T18:18:57.576Z,179.63
2022-11-27T18:21:27.121Z,182.63
2022-11-27T18:27:07.340Z,182.50
2022-11-27T18:29:32.175Z,175.73
2022-11-27T18:31:59.900Z,188.00
2022-11-27T18:34:27.611Z,186.17
2022-11-27T18:36:57.323Z,185.10
2022-11-27T18:39:25.096Z,186.70
2022-11-27T18:41:54.164Z,188.27
2022-11-27T18:44:21.862Z,182.73
2022-11-27T18:46:49.568Z,185.67
2022-11-27T18:49:17.212Z,183.47
2022-11-27T18:51:45.010Z,181.77
2022-11-27T18:54:12.754Z,186.37
2022-11-27T18:56:40.516Z,186.10
2022-11-27T18:59:09.768Z,190.57
2022-11-27T19:01:42.289Z,186.50
2022-11-27T19:04:10.790Z,186.80
2022-11-27T19:06:39.484Z,186.30
2022-11-27T19:09:07.749Z,186.27
2022-11-27T19:11:35.968Z,180.13
2022-11-27T19:14:03.691Z,191.27
2022-11-27T19:16:33.976Z,177.97
2022-11-27T19:19:03.014Z,182.93
2022-11-27T19:21:32.594Z,182.60
2022-11-27T19:24:02.439Z,180.63
2022-11-27T19:26:31.881Z,181.07
2022-11-27T19:29:03.608Z,179.67
2022-11-27T19:31:34.051Z,182.67
2022-11-27T19:34:03.073Z,177.73
2022-11-27T19:36:32.362Z,178.50
2022-11-27T19:39:01.636Z,176.80
2022-11-27T19:41:29.356Z,178.70
2022-11-27T19:43:57.040Z,181.73
2022-11-27T19:46:26.512Z,179.90
2022-11-27T19:48:57.781Z,182.07
2022-11-27T19:51:26.092Z,182.43
2022-11-27T19:53:53.839Z,183.70
2022-11-27T19:56:21.581Z,186.90
2022-11-27T19:58:49.271Z,184.50
2022-11-27T20:01:18.641Z,178.57
2022-11-27T20:03:47.251Z,178.23
2022-11-27T20:06:18.340Z,178.07
2022-11-27T20:08:47.976Z,180.80
2022-11-27T20:11:18.237Z,184.87
2022-11-27T20:13:46.280Z,178.07
2022-11-27T20:16:16.765Z,181.30
2022-11-27T20:18:45.083Z,177.17
2022-11-27T20:21:14.398Z,186.60
2022-11-27T20:23:43.888Z,177.23
2022-11-27T20:26:14.031Z,183.73
2022-11-27T20:28:42.160Z,179.77
2022-11-27T20:31:14.651Z,186.50
2022-11-27T20:33:42.426Z,184.37
2022-11-27T20:36:13.726Z,184.67
2022-11-27T20:38:42.831Z,179.87
2022-11-27T20:41:15.076Z,181.43
2022-11-27T20:43:43.052Z,181.27
2022-11-27T20:46:13.406Z,183.27
2022-11-27T20:48:41.241Z,177.17
2022-11-27T20:51:10.845Z,180.67
2022-11-27T20:53:38.517Z,177.67
2022-11-27T20:56:09.349Z,185.20
2022-11-27T20:58:37.723Z,177.90
